createdAt,value
2018-06-17T00:01:01.268Z,63.67
2018-06-17T00:03:30.230Z,63.61
2018-06-17T00:05:59.203Z,63.69
2018-06-17T00:08:28.246Z,63.57
2018-06-17T00:10:57.225Z,62.20
2018-06-17T00:13:26.205Z,62.97
2018-06-17T00:15:55.176Z,63.17
2018-06-17T00:18:24.170Z,62.95
2018-06-17T00:20:53.170Z,62.29
2018-06-17T00:23:25.280Z,62.75
2018-06-17T00:25:54.224Z,62.76
2018-06-17T00:28:23.146Z,62.65
2018-06-17T00:30:52.104Z,62.72
2018-06-17T00:33:21.045Z,62.75
2018-06-17T00:35:50.064Z,62.38
2018-06-17T00:38:19.065Z,62.23
2018-06-17T00:40:48.070Z,62.30
2018-06-17T00:43:17.256Z,62.88
2018-06-17T00:45:49.438Z,62.81
2018-06-17T00:48:18.374Z,62.90
2018-06-17T00:50:47.334Z,61.80
2018-06-17T00:53:16.245Z,62.39
2018-06-17T00:55:45.224Z,62.63
2018-06-17T00:58:14.196Z,61.91
2018-06-17T01:00:43.188Z,62.08
2018-06-17T01:03:12.152Z,62.07
2018-06-17T01:05:41.094Z,62.15
2018-06-17T01:08:10.072Z,61.65
2018-06-17T01:10:39.093Z,61.24
2018-06-17T01:13:08.082Z,61.63
2018-06-17T01:15:37.013Z,61.75
2018-06-17T01:18:06.035Z,61.24
2018-06-17T01:20:35.063Z,61.57
2018-06-17T01:23:04.039Z,60.01
2018-06-17T01:25:32.971Z,59.66
2018-06-17T01:28:02.034Z,60.39
2018-06-17T01:30:30.911Z,60.18
2018-06-17T01:32:59.806Z,60.12
2018-06-17T01:35:28.691Z,60.77
2018-06-17T01:37:57.588Z,60.74
2018-06-17T01:40:26.492Z,60.28
2018-06-17T01:42:55.367Z,60.60
2018-06-17T01:45:24.257Z,60.48
2018-06-17T01:47:53.141Z,59.89
2018-06-17T01:50:40.119Z,60.05
2018-06-17T01:53:08.944Z,59.82
2018-06-17T01:55:37.772Z,59.80
2018-06-17T01:58:06.638Z,60.32
2018-06-17T02:00:36.712Z,59.98
2018-06-17T02:03:23.233Z,60.41
2018-06-17T02:06:09.718Z,60.50
2018-06-17T02:08:56.194Z,60.62
2018-06-17T02:11:43.805Z,60.46
2018-06-17T02:14:30.647Z,60.84
2018-06-17T02:16:59.480Z,60.58
2018-06-17T02:19:28.372Z,61.08
2018-06-17T02:21:57.239Z,60.19
2018-06-17T02:24:26.259Z,60.87
2018-06-17T02:26:55.148Z,61.20
2018-06-17T02:29:23.998Z,61.71
2018-06-17T02:31:56.165Z,61.62
2018-06-17T02:34:24.994Z,61.97
2018-06-17T02:36:53.897Z,62.49
2018-06-17T02:39:22.721Z,62.10
2018-06-17T02:41:51.580Z,62.59
2018-06-17T02:44:20.464Z,62.77
2018-06-17T02:47:07.241Z,61.73
2018-06-17T02:49:38.781Z,62.68
2018-06-17T02:52:26.460Z,63.02
2018-06-17T02:54:55.314Z,63.23
2018-06-17T02:57:24.189Z,62.62
2018-06-17T02:59:53.105Z,62.06
2018-06-17T03:02:21.985Z,63.20
2018-06-17T03:04:50.822Z,63.90
2018-06-17T03:07:19.987Z,63.90
2018-06-17T03:09:48.857Z,64.10
2018-06-17T03:12:21.338Z,64.05
2018-06-17T03:14:50.163Z,64.59
2018-06-17T03:17:19.006Z,65.24
2018-06-17T03:19:47.886Z,65.29
2018-06-17T03:22:16.721Z,65.60
2018-06-17T03:25:03.266Z,65.41
2018-06-17T03:27:49.828Z,65.79
2018-06-17T03:30:46.513Z,65.77
2018-06-17T03:33:54.160Z,65.80
2018-06-17T03:36:23.039Z,65.82
2018-06-17T03:38:51.872Z,65.77
2018-06-17T03:41:20.743Z,66.04
2018-06-17T03:43:49.613Z,65.96
2018-06-17T03:46:18.455Z,65.54
2018-06-17T03:48:47.314Z,66.24
2018-06-17T03:51:16.197Z,66.35
2018-06-17T03:57:32.924Z,66.11
2018-06-17T04:00:01.772Z,66.67
2018-06-17T04:02:33.259Z,66.86
2018-06-17T04:05:20.293Z,66.41
2018-06-17T04:07:49.214Z,66.07
2018-06-17T04:10:18.148Z,66.53
2018-06-17T04:12:46.942Z,66.91
2018-06-17T04:18:56.948Z,66.66
2018-06-17T04:21:25.802Z,66.49
2018-06-17T04:23:54.651Z,66.85
2018-06-17T04:26:23.499Z,66.38
2018-06-17T04:28:52.373Z,66.34
2018-06-17T04:31:21.226Z,65.99
2018-06-17T04:33:50.104Z,65.62
2018-06-17T04:36:18.934Z,65.68
2018-06-17T04:39:05.335Z,65.32
2018-06-17T04:41:34.183Z,65.58
2018-06-17T04:44:03.046Z,65.72
2018-06-17T04:46:31.899Z,64.47
2018-06-17T04:49:00.755Z,64.90
2018-06-17T04:51:29.626Z,65.29
2018-06-17T04:53:58.472Z,65.08
2018-06-17T04:56:27.359Z,65.00
2018-06-17T04:58:56.209Z,65.84
2018-06-17T05:01:25.341Z,65.35
2018-06-17T05:03:54.220Z,65.36
2018-06-17T05:06:23.108Z,65.08
2018-06-17T05:08:51.954Z,65.19
2018-06-17T05:11:20.871Z,64.63
2018-06-17T05:13:49.809Z,64.16
2018-06-17T05:16:18.675Z,64.46
2018-06-17T05:18:47.502Z,64.73
2018-06-17T05:21:16.375Z,64.51
2018-06-17T05:23:48.035Z,64.79
2018-06-17T05:26:16.869Z,64.75
2018-06-17T05:28:45.719Z,64.67
2018-06-17T05:31:14.576Z,63.61
2018-06-17T05:33:43.538Z,64.41
2018-06-17T05:36:12.330Z,64.69
2018-06-17T05:38:41.316Z,64.74
2018-06-17T05:41:10.138Z,63.72
2018-06-17T05:43:39.062Z,64.95
2018-06-17T05:46:08.024Z,64.52
2018-06-17T05:48:36.910Z,64.53
2018-06-17T05:51:05.846Z,63.97
2018-06-17T05:53:34.767Z,64.37
2018-06-17T05:56:03.713Z,64.13
2018-06-17T05:58:32.491Z,64.04
2018-06-17T06:01:01.422Z,64.20
2018-06-17T06:03:30.278Z,64.16
2018-06-17T06:05:59.301Z,63.87
2018-06-17T06:08:28.153Z,63.22
2018-06-17T06:10:57.009Z,63.48
2018-06-17T06:13:25.913Z,63.08
2018-06-17T06:15:54.803Z,62.76
2018-06-17T06:18:23.676Z,63.13
2018-06-17T06:20:52.532Z,62.46
2018-06-17T06:23:21.438Z,61.65
2018-06-17T06:25:50.213Z,61.54
2018-06-17T06:28:19.071Z,61.20
2018-06-17T06:30:54.837Z,61.20
2018-06-17T06:33:23.637Z,60.04
2018-06-17T06:35:52.499Z,60.32
2018-06-17T06:38:21.390Z,60.99
2018-06-17T06:40:50.269Z,59.56
2018-06-17T06:43:19.125Z,59.00
2018-06-17T06:45:47.967Z,58.15
2018-06-17T06:48:17.084Z,57.87
2018-06-17T06:50:45.950Z,57.15
2018-06-17T06:53:14.951Z,55.22
2018-06-17T06:55:43.809Z,54.90
2018-06-17T06:58:12.717Z,53.46
2018-06-17T07:00:41.611Z,53.89
2018-06-17T07:03:46.919Z,55.39
2018-06-17T07:06:52.383Z,55.46
2018-06-17T07:09:58.111Z,56.56
2018-06-17T07:12:27.030Z,59.06
2018-06-17T07:14:56.965Z,59.27
2018-06-17T07:18:02.717Z,59.45
2018-06-17T07:20:31.557Z,59.55
2018-06-17T07:23:00.399Z,58.70
2018-06-17T07:25:59.079Z,58.51
2018-06-17T07:29:34.584Z,58.42
2018-06-17T07:32:03.451Z,57.62
2018-06-17T07:34:32.311Z,56.99
2018-06-17T07:37:01.245Z,56.33
2018-06-17T07:40:11.689Z,55.57
2018-06-17T07:42:40.580Z,56.30
2018-06-17T07:45:09.498Z,55.78
2018-06-17T07:47:38.345Z,54.65
2018-06-17T07:50:44.094Z,53.32
2018-06-17T07:53:19.825Z,53.76
2018-06-17T07:55:51.499Z,53.30
2018-06-17T07:58:20.365Z,53.13
2018-06-17T08:00:49.242Z,53.10
2018-06-17T08:03:18.061Z,54.53
2018-06-17T08:05:46.938Z,53.12
2018-06-17T08:08:15.797Z,52.72
2018-06-17T08:10:44.687Z,51.95
2018-06-17T08:13:13.559Z,52.11
2018-06-17T08:15:42.438Z,51.73
2018-06-17T08:18:11.328Z,50.61
2018-06-17T08:20:40.224Z,50.98
2018-06-17T08:23:09.147Z,49.86
2018-06-17T08:25:37.983Z,50.54
2018-06-17T08:28:06.867Z,51.14
2018-06-17T08:30:35.897Z,50.09
2018-06-17T08:33:04.661Z,51.24
2018-06-17T08:35:33.497Z,50.01
2018-06-17T08:38:02.442Z,47.70
2018-06-17T08:41:25.933Z,49.44
2018-06-17T08:43:54.799Z,48.18
2018-06-17T08:46:23.701Z,50.20
2018-06-17T08:48:52.580Z,49.25
2018-06-17T08:51:21.467Z,50.70
2018-06-17T08:53:50.360Z,51.56
2018-06-17T08:56:19.186Z,51.45
2018-06-17T08:58:48.034Z,51.45
2018-06-17T09:01:16.929Z,51.87
2018-06-17T09:03:45.790Z,51.54
2018-06-17T09:06:14.648Z,52.29
2018-06-17T09:08:43.520Z,51.94
2018-06-17T09:11:12.593Z,52.68
2018-06-17T09:13:41.452Z,53.51
2018-06-17T09:16:10.314Z,53.73
2018-06-17T09:18:39.187Z,53.67
2018-06-17T09:21:08.059Z,53.41
2018-06-17T09:23:37.142Z,53.67
2018-06-17T09:26:06.179Z,54.31
2018-06-17T09:28:35.013Z,52.72
2018-06-17T09:31:03.874Z,51.80
2018-06-17T09:33:32.797Z,52.16
2018-06-17T09:36:01.612Z,52.46
2018-06-17T09:38:30.439Z,52.99
2018-06-17T09:40:59.296Z,52.58
2018-06-17T09:43:28.155Z,53.13
2018-06-17T09:45:57.040Z,53.01
2018-06-17T09:52:01.537Z,52.58
2018-06-17T09:54:30.380Z,53.14
2018-06-17T09:56:59.231Z,52.92
2018-06-17T09:59:28.121Z,54.27
2018-06-17T10:01:56.969Z,54.43
2018-06-17T10:04:25.829Z,55.04
2018-06-17T10:06:54.740Z,55.03
2018-06-17T10:09:23.564Z,54.92
2018-06-17T10:12:10.047Z,54.63
2018-06-17T10:14:38.869Z,53.93
2018-06-17T10:17:08.113Z,53.79
2018-06-17T10:19:37.032Z,52.13
2018-06-17T10:22:05.882Z,50.26
2018-06-17T10:24:34.710Z,46.56
2018-06-17T10:27:03.545Z,47.30
2018-06-17T10:29:32.472Z,45.84
2018-06-17T10:32:01.294Z,48.14
2018-06-17T10:34:30.300Z,48.56
2018-06-17T10:36:59.160Z,49.20
2018-06-17T10:39:28.020Z,49.09
2018-06-17T10:41:56.855Z,48.19
2018-06-17T10:44:25.847Z,49.22
2018-06-17T10:46:54.622Z,48.69
2018-06-17T10:49:23.668Z,49.84
2018-06-17T10:51:52.874Z,50.86
2018-06-17T10:54:21.894Z,50.67
2018-06-17T10:56:53.928Z,50.65
2018-06-17T10:59:22.991Z,49.16
2018-06-17T11:01:51.909Z,49.14
2018-06-17T11:04:21.419Z,49.11
2018-06-17T11:06:50.546Z,48.93
2018-06-17T11:09:19.484Z,48.83
2018-06-17T11:11:48.514Z,47.69
2018-06-17T11:14:17.659Z,47.19
2018-06-17T11:16:46.647Z,47.19
2018-06-17T11:19:15.704Z,47.84
2018-06-17T11:21:44.729Z,47.30
2018-06-17T11:24:13.872Z,48.59
2018-06-17T11:26:42.889Z,49.18
2018-06-17T11:29:11.862Z,49.23
2018-06-17T11:31:40.855Z,49.40
2018-06-17T11:34:10.015Z,49.31
2018-06-17T11:36:38.944Z,49.26
2018-06-17T11:39:09.573Z,47.78
2018-06-17T11:41:38.460Z,48.94
2018-06-17T11:44:07.494Z,49.78
2018-06-17T11:46:36.541Z,49.03
2018-06-17T11:49:05.784Z,48.82
2018-06-17T11:51:34.926Z,49.44
2018-06-17T11:54:04.022Z,49.67
2018-06-17T11:56:33.014Z,49.60
2018-06-17T11:59:02.047Z,50.37
2018-06-17T12:01:31.264Z,50.12
2018-06-17T12:04:00.312Z,50.25
2018-06-17T12:06:29.428Z,50.47
2018-06-17T12:08:58.509Z,49.65
2018-06-17T12:11:27.606Z,49.69
2018-06-17T12:13:56.591Z,49.35
2018-06-17T12:16:25.771Z,49.26
2018-06-17T12:18:54.762Z,49.87
2018-06-17T12:21:24.913Z,49.81
2018-06-17T12:23:54.108Z,49.25
2018-06-17T12:26:23.216Z,49.67
2018-06-17T12:28:52.374Z,50.71
2018-06-17T12:31:21.486Z,50.28
2018-06-17T12:33:50.503Z,50.14
2018-06-17T12:36:19.453Z,49.94
2018-06-17T12:38:48.592Z,49.81
2018-06-17T12:41:17.577Z,49.52
2018-06-17T12:43:46.448Z,49.04
2018-06-17T12:46:15.299Z,49.07
2018-06-17T12:48:44.143Z,49.14
2018-06-17T12:51:13.005Z,49.09
2018-06-17T12:53:41.847Z,48.77
2018-06-17T12:56:10.696Z,48.97
2018-06-17T12:58:39.579Z,48.54
2018-06-17T13:01:08.453Z,48.06
2018-06-17T13:03:37.329Z,47.27
2018-06-17T13:06:06.255Z,47.04
2018-06-17T13:08:35.144Z,47.60
2018-06-17T13:11:04.052Z,46.35
2018-06-17T13:13:33.058Z,46.55
2018-06-17T13:16:01.948Z,45.46
2018-06-17T13:18:30.778Z,46.12
2018-06-17T13:20:59.603Z,46.69
2018-06-17T13:23:28.494Z,46.49
2018-06-17T13:25:58.645Z,46.89
2018-06-17T13:28:27.530Z,47.14
2018-06-17T13:30:56.396Z,47.47
2018-06-17T13:33:25.230Z,47.93
2018-06-17T13:35:54.075Z,47.75
2018-06-17T13:38:22.936Z,47.79
2018-06-17T13:40:51.815Z,47.84
2018-06-17T13:43:20.643Z,47.80
2018-06-17T13:45:49.475Z,48.28
2018-06-17T13:48:21.199Z,47.95
2018-06-17T13:50:50.092Z,47.99
2018-06-17T13:53:18.958Z,48.06
2018-06-17T13:55:47.857Z,48.52
2018-06-17T13:58:16.666Z,48.32
2018-06-17T14:00:45.508Z,48.49
2018-06-17T14:03:14.336Z,47.53
2018-06-17T14:05:43.166Z,48.01
2018-06-17T14:08:12.005Z,47.84
2018-06-17T14:10:40.912Z,47.31
2018-06-17T14:13:09.817Z,47.12
2018-06-17T14:15:38.675Z,47.27
2018-06-17T14:18:07.553Z,47.46
2018-06-17T14:20:36.397Z,47.49
2018-06-17T14:23:05.330Z,47.62
2018-06-17T14:25:34.169Z,46.84
2018-06-17T14:28:03.101Z,46.45
2018-06-17T14:30:32.078Z,46.14
2018-06-17T14:33:04.653Z,45.39
2018-06-17T14:35:33.531Z,45.74
2018-06-17T14:38:02.391Z,45.24
2018-06-17T14:40:50.360Z,44.26
2018-06-17T14:43:37.148Z,44.46
2018-06-17T14:46:24.044Z,44.68
2018-06-17T14:49:10.744Z,45.21
2018-06-17T14:52:05.617Z,45.58
2018-06-17T14:54:43.156Z,46.51
2018-06-17T14:57:12.083Z,46.09
2018-06-17T14:59:41.179Z,46.50
2018-06-17T15:02:10.101Z,46.19
2018-06-17T15:04:38.997Z,46.27
2018-06-17T15:07:07.977Z,46.33
2018-06-17T15:09:36.864Z,47.07
2018-06-17T15:12:05.740Z,47.29
2018-06-17T15:14:34.593Z,48.10
2018-06-17T15:17:09.786Z,48.27
2018-06-17T15:19:38.665Z,49.11
2018-06-17T15:22:07.556Z,48.53
2018-06-17T15:24:36.375Z,47.31
2018-06-17T15:27:05.344Z,48.54
2018-06-17T15:29:34.172Z,48.74
2018-06-17T15:32:20.547Z,48.97
2018-06-17T15:35:17.397Z,47.59
2018-06-17T15:38:06.740Z,48.12
2018-06-17T15:40:53.005Z,48.30
2018-06-17T15:43:21.856Z,48.65
2018-06-17T15:45:50.759Z,48.59
2018-06-17T15:48:19.750Z,46.90
2018-06-17T15:50:48.622Z,46.52
2018-06-17T15:53:17.502Z,48.81
2018-06-17T15:55:46.401Z,50.92
2018-06-17T15:58:18.324Z,52.31
2018-06-17T16:00:47.259Z,52.91
2018-06-17T16:03:16.034Z,54.84
2018-06-17T16:05:44.964Z,55.18
2018-06-17T16:08:13.825Z,54.99
2018-06-17T16:10:42.834Z,54.70
2018-06-17T16:13:29.413Z,55.35
2018-06-17T16:16:15.985Z,55.58
2018-06-17T16:19:02.945Z,55.87
2018-06-17T16:21:31.809Z,56.45
2018-06-17T16:24:00.819Z,56.73
2018-06-17T16:26:29.829Z,57.42
2018-06-17T16:28:58.785Z,57.22
2018-06-17T16:31:27.700Z,57.64
2018-06-17T16:33:56.559Z,56.62
2018-06-17T16:36:25.469Z,57.98
2018-06-17T16:38:54.461Z,59.03
2018-06-17T16:41:23.373Z,58.18
2018-06-17T16:43:52.214Z,59.68
2018-06-17T16:46:21.112Z,59.82
2018-06-17T16:48:49.993Z,60.03
2018-06-17T16:51:36.595Z,59.78
2018-06-17T16:54:43.392Z,59.72
2018-06-17T16:57:30.393Z,59.90
2018-06-17T17:00:05.880Z,59.79
2018-06-17T17:02:34.740Z,59.97
2018-06-17T17:05:03.628Z,60.32
2018-06-17T17:07:32.448Z,60.28
2018-06-17T17:10:01.397Z,60.49
2018-06-17T17:12:30.220Z,60.72
2018-06-17T17:14:59.100Z,59.48
2018-06-17T17:17:27.993Z,60.36
2018-06-17T17:19:56.866Z,60.80
2018-06-17T17:22:25.708Z,61.20
2018-06-17T17:24:54.560Z,61.39
2018-06-17T17:27:23.519Z,62.08
2018-06-17T17:29:52.369Z,62.86
2018-06-17T17:32:39.225Z,60.97
2018-06-17T17:35:42.448Z,62.26
2018-06-17T17:38:48.357Z,60.88
2018-06-17T17:41:17.086Z,62.16
2018-06-17T17:43:45.928Z,62.61
2018-06-17T17:46:32.713Z,62.59
2018-06-17T17:49:01.581Z,62.42
2018-06-17T17:51:30.408Z,62.72
2018-06-17T17:53:59.872Z,63.22
2018-06-17T17:56:29.131Z,63.14
2018-06-17T17:58:57.988Z,64.12
2018-06-17T18:01:29.743Z,64.18
2018-06-17T18:03:58.979Z,64.40
2018-06-17T18:06:27.897Z,65.03
2018-06-17T18:08:56.730Z,65.24
2018-06-17T18:11:25.595Z,65.04
2018-06-17T18:13:54.494Z,65.27
2018-06-17T18:16:23.312Z,65.71
2018-06-17T18:18:52.137Z,65.67
2018-06-17T18:21:20.953Z,66.35
2018-06-17T18:23:49.903Z,66.00
2018-06-17T18:26:36.535Z,65.81
2018-06-17T18:29:23.171Z,66.16
2018-06-17T18:32:10.067Z,66.32
2018-06-17T18:34:56.447Z,66.81
2018-06-17T18:37:25.339Z,67.88
2018-06-17T18:39:54.168Z,67.03
2018-06-17T18:42:23.043Z,65.70
2018-06-17T18:44:51.936Z,67.13
2018-06-17T18:47:20.796Z,67.01
2018-06-17T18:49:49.683Z,67.05
2018-06-17T18:52:18.535Z,67.64
2018-06-17T18:54:47.442Z,67.53
2018-06-17T18:57:16.290Z,66.97
2018-06-17T18:59:45.225Z,68.12
2018-06-17T19:02:14.050Z,67.57
2018-06-17T19:04:42.950Z,67.55
2018-06-17T19:07:13.172Z,67.69
2018-06-17T19:09:59.830Z,67.80
2018-06-17T19:12:46.918Z,67.67
2018-06-17T19:15:33.302Z,67.83
2018-06-17T19:18:13.101Z,67.72
2018-06-17T19:20:41.977Z,68.02
2018-06-17T19:23:10.877Z,68.16
2018-06-17T19:25:39.759Z,68.14
2018-06-17T19:28:08.596Z,68.08
2018-06-17T19:30:37.546Z,68.24
2018-06-17T19:33:06.390Z,68.30
2018-06-17T19:35:35.299Z,68.22
2018-06-17T19:38:04.157Z,68.03
2018-06-17T19:40:33.145Z,68.12
2018-06-17T19:43:02.002Z,68.16
2018-06-17T19:45:30.992Z,67.91
2018-06-17T19:47:59.920Z,68.31
2018-06-17T19:50:46.790Z,68.16
2018-06-17T19:53:33.287Z,67.24
2018-06-17T19:56:19.861Z,68.35
2018-06-17T19:59:06.655Z,68.39
2018-06-17T20:01:35.524Z,68.98
2018-06-17T20:04:04.369Z,69.42
2018-06-17T20:06:33.520Z,67.46
2018-06-17T20:09:02.216Z,68.35
2018-06-17T20:11:31.060Z,68.47
2018-06-17T20:13:59.961Z,68.29
2018-06-17T20:16:28.742Z,68.63
2018-06-17T20:18:57.638Z,68.24
2018-06-17T20:21:26.464Z,68.28
2018-06-17T20:23:55.326Z,68.16
2018-06-17T20:26:24.193Z,68.12
2018-06-17T20:28:53.079Z,68.17
2018-06-17T20:31:22.033Z,68.62
2018-06-17T20:34:08.533Z,68.39
2018-06-17T20:36:55.219Z,68.28
2018-06-17T20:39:42.153Z,67.88
2018-06-17T20:42:28.462Z,68.29
2018-06-17T20:44:57.411Z,68.55
2018-06-17T20:47:26.241Z,68.23
2018-06-17T20:49:55.112Z,68.05
2018-06-17T20:52:25.211Z,68.40
2018-06-17T20:54:54.080Z,66.89
2018-06-17T20:57:22.925Z,67.84
2018-06-17T20:59:51.787Z,68.36
2018-06-17T21:02:20.867Z,68.51
2018-06-17T21:04:49.722Z,68.73
2018-06-17T21:07:18.584Z,69.02
2018-06-17T21:09:47.492Z,69.21
2018-06-17T21:12:16.257Z,67.63
2018-06-17T21:14:45.241Z,68.55
2018-06-17T21:17:14.161Z,68.43
2018-06-17T21:20:00.738Z,69.18
2018-06-17T21:22:47.310Z,69.56
2018-06-17T21:25:33.654Z,69.49
2018-06-17T21:28:02.943Z,70.11
2018-06-17T21:30:31.846Z,69.52
2018-06-17T21:33:00.724Z,69.42
2018-06-17T21:35:32.753Z,69.86
2018-06-17T21:38:01.609Z,69.44
2018-06-17T21:40:30.462Z,70.03
2018-06-17T21:42:59.515Z,69.94
2018-06-17T21:45:28.416Z,70.14
2018-06-17T21:47:57.553Z,70.16
2018-06-17T21:50:26.436Z,69.91
2018-06-17T21:52:55.467Z,70.18
2018-06-17T21:55:24.355Z,70.15
2018-06-17T21:57:56.105Z,70.14
2018-06-17T22:00:24.988Z,70.19
2018-06-17T22:02:53.859Z,70.38
2018-06-17T22:05:22.701Z,70.46
2018-06-17T22:08:09.090Z,70.64
2018-06-17T22:10:55.766Z,70.84
2018-06-17T22:13:24.666Z,70.94
2018-06-17T22:16:11.492Z,71.20
2018-06-17T22:18:43.381Z,71.21
2018-06-17T22:21:12.216Z,71.35
2018-06-17T22:23:41.245Z,71.20
2018-06-17T22:26:10.416Z,71.10
2018-06-17T22:28:39.267Z,70.65
2018-06-17T22:31:08.171Z,71.49
2018-06-17T22:33:37.096Z,71.78
2018-06-17T22:36:05.953Z,72.00
2018-06-17T22:38:34.795Z,72.30
2018-06-17T22:41:05.058Z,72.53
2018-06-17T22:43:33.998Z,72.57
2018-06-17T22:46:02.869Z,72.73
2018-06-17T22:48:31.753Z,72.66
2018-06-17T22:51:00.708Z,72.62
2018-06-17T22:54:06.360Z,72.77
2018-06-17T22:56:53.153Z,71.35
2018-06-17T22:59:40.038Z,72.20
2018-06-17T23:02:26.516Z,72.18
2018-06-17T23:05:13.119Z,72.17
2018-06-17T23:07:59.703Z,72.72
2018-06-17T23:10:28.610Z,71.87
2018-06-17T23:12:57.433Z,72.54
2018-06-17T23:15:26.306Z,72.79
2018-06-17T23:17:55.187Z,71.67
2018-06-17T23:20:24.047Z,72.57
2018-06-17T23:22:56.057Z,72.39
2018-06-17T23:25:24.919Z,72.34
2018-06-17T23:27:53.763Z,72.42
2018-06-17T23:30:22.609Z,72.30
2018-06-17T23:32:51.479Z,72.40
2018-06-17T23:35:20.354Z,72.63
2018-06-17T23:37:49.261Z,72.49
2018-06-17T23:40:18.229Z,72.86
2018-06-17T23:42:47.127Z,72.51
2018-06-17T23:45:16.126Z,72.35
2018-06-17T23:48:02.768Z,72.33
2018-06-17T23:50:49.128Z,71.97
2018-06-17T23:53:35.966Z,71.90
2018-06-17T23:56:08.237Z,71.71
2018-06-17T23:58:38.272Z,71.14
